sensor_id;sensor_type;location;lat;lon;timestamp;pressure;altitude;pressure_sealevel;temperature;humidity
70200;BME280;57587;55.688;37.600;2022-09-09T00:04:01;100217.50;;;8.86;59.01
70200;BME280;57587;55.688;37.600;2022-09-09T00:06:35;100218.31;;;8.86;58.83
70200;BME280;57587;55.688;37.600;2022-09-09T00:11:51;100226.47;;;8.85;58.98
70200;BME280;57587;55.688;37.600;2022-09-09T00:16:54;100222.97;;;8.84;59.54
70200;BME280;57587;55.688;37.600;2022-09-09T00:19:54;100227.47;;;8.84;59.58
70200;BME280;57587;55.688;37.600;2022-09-09T00:22:23;100215.59;;;8.78;59.33
70200;BME280;57587;55.688;37.600;2022-09-09T00:24:55;100222.91;;;8.76;59.19
70200;BME280;57587;55.688;37.600;2022-09-09T00:32:48;100229.09;;;8.76;59.16
70200;BME280;57587;55.688;37.600;2022-09-09T00:35:22;100223.06;;;8.74;59.66
70200;BME280;57587;55.688;37.600;2022-09-09T00:37:53;100232.09;;;8.73;59.01
70200;BME280;57587;55.688;37.600;2022-09-09T00:40:28;100238.09;;;8.75;59.18
70200;BME280;57587;55.688;37.600;2022-09-09T00:48:10;100241.75;;;8.74;59.80
70200;BME280;57587;55.688;37.600;2022-09-09T00:50:52;100240.09;;;8.73;60.17
70200;BME280;57587;55.688;37.600;2022-09-09T00:56:28;100251.59;;;8.74;59.90
70200;BME280;57587;55.688;37.600;2022-09-09T00:59:07;100249.75;;;8.74;60.10
70200;BME280;57587;55.688;37.600;2022-09-09T01:01:39;100252.75;;;8.71;59.70
70200;BME280;57587;55.688;37.600;2022-09-09T01:04:13;100252.56;;;8.73;59.73
70200;BME280;57587;55.688;37.600;2022-09-09T01:06:45;100258.44;;;8.76;59.68
70200;BME280;57587;55.688;37.600;2022-09-09T01:17:13;100254.78;;;8.77;59.86
70200;BME280;57587;55.688;37.600;2022-09-09T01:19:58;100261.13;;;8.76;59.74
70200;BME280;57587;55.688;37.600;2022-09-09T01:28:09;100263.41;;;8.71;59.63
70200;BME280;57587;55.688;37.600;2022-09-09T01:30:40;100273.06;;;8.72;60.06
70200;BME280;57587;55.688;37.600;2022-09-09T01:33:16;100281.78;;;8.74;60.29
70200;BME280;57587;55.688;37.600;2022-09-09T01:38:36;100279.41;;;8.71;60.59
70200;BME280;57587;55.688;37.600;2022-09-09T01:41:03;100280.25;;;8.72;60.47
70200;BME280;57587;55.688;37.600;2022-09-09T01:43:42;100279.72;;;8.68;61.31
70200;BME280;57587;55.688;37.600;2022-09-09T01:46:10;100275.38;;;8.67;60.31
70200;BME280;57587;55.688;37.600;2022-09-09T01:48:40;100284.22;;;8.68;60.96
70200;BME280;57587;55.688;37.600;2022-09-09T01:51:09;100290.41;;;8.68;60.60
70200;BME280;57587;55.688;37.600;2022-09-09T01:53:40;100289.25;;;8.71;60.89
70200;BME280;57587;55.688;37.600;2022-09-09T01:56:28;100289.56;;;8.68;61.06
70200;BME280;57587;55.688;37.600;2022-09-09T01:59:15;100296.03;;;8.65;60.48
70200;BME280;57587;55.688;37.600;2022-09-09T02:06:53;100302.00;;;8.59;61.17
70200;BME280;57587;55.688;37.600;2022-09-09T02:09:26;100298.31;;;8.60;60.77
70200;BME280;57587;55.688;37.600;2022-09-09T02:12:08;100294.97;;;8.58;60.86
70200;BME280;57587;55.688;37.600;2022-09-09T02:14:52;100304.25;;;8.54;61.04
70200;BME280;57587;55.688;37.600;2022-09-09T02:17:27;100304.72;;;8.49;60.99
70200;BME280;57587;55.688;37.600;2022-09-09T02:20:11;100300.94;;;8.52;61.30
70200;BME280;57587;55.688;37.600;2022-09-09T02:22:53;100302.06;;;8.49;61.43
70200;BME280;57587;55.688;37.600;2022-09-09T02:25:26;100309.91;;;8.51;61.17
70200;BME280;57587;55.688;37.600;2022-09-09T02:28:06;100310.72;;;8.51;60.47
70200;BME280;57587;55.688;37.600;2022-09-09T02:30:37;100321.56;;;8.50;60.74
70200;BME280;57587;55.688;37.600;2022-09-09T02:33:07;100310.06;;;8.49;60.91
70200;BME280;57587;55.688;37.600;2022-09-09T02:35:44;100316.38;;;8.48;61.34
70200;BME280;57587;55.688;37.600;2022-09-09T02:38:15;100319.50;;;8.44;60.82
70200;BME280;57587;55.688;37.600;2022-09-09T02:41:07;100324.00;;;8.43;60.76
70200;BME280;57587;55.688;37.600;2022-09-09T02:43:35;100317.97;;;8.41;60.78
70200;BME280;57587;55.688;37.600;2022-09-09T02:49:07;100325.72;;;8.35;60.98
70200;BME280;57587;55.688;37.600;2022-09-09T02:54:30;100337.97;;;8.27;61.16
70200;BME280;57587;55.688;37.600;2022-09-09T02:57:21;100341.25;;;8.21;61.66
70200;BME280;57587;55.688;37.600;2022-09-09T02:59:51;100343.22;;;8.19;61.29
70200;BME280;57587;55.688;37.600;2022-09-09T03:06:06;100348.84;;;8.16;61.37
70200;BME280;57587;55.688;37.600;2022-09-09T03:08:33;100344.81;;;8.12;61.57
70200;BME280;57587;55.688;37.600;2022-09-09T03:11:01;100343.56;;;8.06;61.62
70200;BME280;57587;55.688;37.600;2022-09-09T03:13:31;100345.28;;;7.98;61.74
70200;BME280;57587;55.688;37.600;2022-09-09T03:15:58;100346.88;;;7.91;62.04
70200;BME280;57587;55.688;37.600;2022-09-09T03:18:28;100355.47;;;7.84;62.35
70200;BME280;57587;55.688;37.600;2022-09-09T03:20:56;100356.34;;;7.75;62.79
70200;BME280;57587;55.688;37.600;2022-09-09T03:23:24;100361.13;;;7.72;63.40
70200;BME280;57587;55.688;37.600;2022-09-09T03:25:51;100362.53;;;7.66;63.72
70200;BME280;57587;55.688;37.600;2022-09-09T03:28:26;100363.84;;;7.62;63.75
70200;BME280;57587;55.688;37.600;2022-09-09T03:31:04;100362.97;;;7.61;63.79
70200;BME280;57587;55.688;37.600;2022-09-09T03:33:37;100366.91;;;7.57;64.00
70200;BME280;57587;55.688;37.600;2022-09-09T03:36:06;100364.41;;;7.56;64.03
70200;BME280;57587;55.688;37.600;2022-09-09T03:38:35;100372.69;;;7.53;64.15
70200;BME280;57587;55.688;37.600;2022-09-09T03:41:02;100373.09;;;7.48;64.12
70200;BME280;57587;55.688;37.600;2022-09-09T03:43:30;100376.84;;;7.55;64.49
70200;BME280;57587;55.688;37.600;2022-09-09T03:45:58;100382.06;;;7.57;64.76
70200;BME280;57587;55.688;37.600;2022-09-09T03:48:26;100369.75;;;7.56;64.62
70200;BME280;57587;55.688;37.600;2022-09-09T03:50:55;100375.16;;;7.64;64.12
70200;BME280;57587;55.688;37.600;2022-09-09T03:53:25;100382.56;;;8.07;63.08
70200;BME280;57587;55.688;37.600;2022-09-09T03:55:54;100377.75;;;9.02;60.44
70200;BME280;57587;55.688;37.600;2022-09-09T03:58:24;100386.28;;;10.10;57.68
70200;BME280;57587;55.688;37.600;2022-09-09T04:01:16;100390.34;;;11.30;53.80
70200;BME280;57587;55.688;37.600;2022-09-09T04:03:45;100393.00;;;12.18;51.36
70200;BME280;57587;55.688;37.600;2022-09-09T04:06:14;100386.25;;;13.08;48.71
70200;BME280;57587;55.688;37.600;2022-09-09T04:08:45;100389.88;;;13.91;46.00
70200;BME280;57587;55.688;37.600;2022-09-09T04:11:14;100378.72;;;14.74;44.76
70200;BME280;57587;55.688;37.600;2022-09-09T04:13:43;100382.44;;;15.44;42.91
70200;BME280;57587;55.688;37.600;2022-09-09T04:16:12;100392.94;;;16.30;41.42
70200;BME280;57587;55.688;37.600;2022-09-09T04:18:43;100376.53;;;17.00;39.44
70200;BME280;57587;55.688;37.600;2022-09-09T04:24:33;100388.91;;;18.65;35.73
70200;BME280;57587;55.688;37.600;2022-09-09T04:27:02;100391.88;;;19.27;34.97
70200;BME280;57587;55.688;37.600;2022-09-09T04:29:31;100396.69;;;19.75;33.43
70200;BME280;57587;55.688;37.600;2022-09-09T04:32:01;100385.16;;;20.35;31.90
70200;BME280;57587;55.688;37.600;2022-09-09T04:34:31;100394.38;;;20.83;31.05
70200;BME280;57587;55.688;37.600;2022-09-09T04:37:00;100389.81;;;21.37;30.28
70200;BME280;57587;55.688;37.600;2022-09-09T04:39:28;100392.06;;;21.75;29.82
70200;BME280;57587;55.688;37.600;2022-09-09T04:41:57;100391.03;;;22.40;29.27
70200;BME280;57587;55.688;37.600;2022-09-09T04:44:25;100397.38;;;22.98;28.50
70200;BME280;57587;55.688;37.600;2022-09-09T04:46:53;100396.06;;;23.51;27.16
70200;BME280;57587;55.688;37.600;2022-09-09T04:49:20;100397.59;;;23.98;26.44
70200;BME280;57587;55.688;37.600;2022-09-09T04:51:51;100389.91;;;24.38;26.14
70200;BME280;57587;55.688;37.600;2022-09-09T04:54:19;100392.16;;;24.91;25.22
70200;BME280;57587;55.688;37.600;2022-09-09T04:56:46;100401.13;;;25.40;24.46
70200;BME280;57587;55.688;37.600;2022-09-09T04:59:13;100394.47;;;25.73;23.62
70200;BME280;57587;55.688;37.600;2022-09-09T05:01:47;100403.53;;;26.16;22.92
70200;BME280;57587;55.688;37.600;2022-09-09T05:04:15;100402.59;;;26.53;23.12
70200;BME280;57587;55.688;37.600;2022-09-09T05:06:42;100402.47;;;27.01;22.56
70200;BME280;57587;55.688;37.600;2022-09-09T05:09:11;100408.53;;;27.33;21.80
70200;BME280;57587;55.688;37.600;2022-09-09T05:11:38;100414.28;;;27.88;20.79
70200;BME280;57587;55.688;37.600;2022-09-09T05:14:10;100410.59;;;28.28;20.28
70200;BME280;57587;55.688;37.600;2022-09-09T05:16:39;100420.09;;;28.62;19.16
70200;BME280;57587;55.688;37.600;2022-09-09T05:19:07;100417.44;;;28.91;19.58
70200;BME280;57587;55.688;37.600;2022-09-09T05:21:46;100423.50;;;29.32;18.68
70200;BME280;57587;55.688;37.600;2022-09-09T05:24:18;100433.78;;;29.61;18.69
70200;BME280;57587;55.688;37.600;2022-09-09T05:26:49;100426.56;;;29.65;18.47
70200;BME280;57587;55.688;37.600;2022-09-09T05:29:16;100420.31;;;29.83;18.73
70200;BME280;57587;55.688;37.600;2022-09-09T05:31:46;100430.59;;;30.02;17.74
70200;BME280;57587;55.688;37.600;2022-09-09T05:34:17;100418.47;;;30.51;17.23
70200;BME280;57587;55.688;37.600;2022-09-09T05:36:45;100425.34;;;30.72;17.49
70200;BME280;57587;55.688;37.600;2022-09-09T05:39:14;100418.56;;;30.84;17.24
70200;BME280;57587;55.688;37.600;2022-09-09T05:41:41;100428.50;;;31.22;16.54
70200;BME280;57587;55.688;37.600;2022-09-09T05:44:08;100420.69;;;31.43;15.85
70200;BME280;57587;55.688;37.600;2022-09-09T05:46:38;100428.56;;;31.69;16.20
70200;BME280;57587;55.688;37.600;2022-09-09T05:49:05;100428.41;;;31.93;15.90
70200;BME280;57587;55.688;37.600;2022-09-09T05:51:34;100429.34;;;32.16;15.28
70200;BME280;57587;55.688;37.600;2022-09-09T05:54:06;100431.91;;;32.26;15.25
70200;BME280;57587;55.688;37.600;2022-09-09T05:56:37;100420.84;;;32.40;15.45
70200;BME280;57587;55.688;37.600;2022-09-09T05:59:06;100430.84;;;32.77;15.22
70200;BME280;57587;55.688;37.600;2022-09-09T06:01:37;100436.81;;;33.21;14.78
70200;BME280;57587;55.688;37.600;2022-09-09T06:04:14;100438.94;;;33.46;14.83
70200;BME280;57587;55.688;37.600;2022-09-09T06:06:44;100439.84;;;33.87;14.01
70200;BME280;57587;55.688;37.600;2022-09-09T06:09:15;100438.34;;;34.12;13.27
70200;BME280;57587;55.688;37.600;2022-09-09T06:11:45;100428.31;;;34.42;13.61
70200;BME280;57587;55.688;37.600;2022-09-09T06:14:14;100426.22;;;34.48;13.00
70200;BME280;57587;55.688;37.600;2022-09-09T06:16:44;100443.81;;;34.34;13.18
70200;BME280;57587;55.688;37.600;2022-09-09T06:19:21;100431.63;;;33.73;13.12
70200;BME280;57587;55.688;37.600;2022-09-09T06:21:48;100437.59;;;33.66;13.08
70200;BME280;57587;55.688;37.600;2022-09-09T06:24:17;100447.09;;;32.15;14.12
70200;BME280;57587;55.688;37.600;2022-09-09T06:26:46;100447.41;;;32.13;14.13
70200;BME280;57587;55.688;37.600;2022-09-09T06:29:20;100449.22;;;32.73;13.95
70200;BME280;57587;55.688;37.600;2022-09-09T06:31:47;100451.41;;;33.35;13.67
70200;BME280;57587;55.688;37.600;2022-09-09T06:34:19;100445.06;;;34.11;13.51
70200;BME280;57587;55.688;37.600;2022-09-09T06:36:50;100444.28;;;35.02;13.27
70200;BME280;57587;55.688;37.600;2022-09-09T06:39:17;100446.06;;;35.50;12.25
70200;BME280;57587;55.688;37.600;2022-09-09T06:41:45;100456.75;;;35.22;12.45
70200;BME280;57587;55.688;37.600;2022-09-09T06:44:41;100452.09;;;34.57;12.87
70200;BME280;57587;55.688;37.600;2022-09-09T06:47:13;100442.56;;;32.05;14.61
70200;BME280;57587;55.688;37.600;2022-09-09T06:49:42;100460.03;;;32.33;14.69
70200;BME280;57587;55.688;37.600;2022-09-09T06:52:15;100456.09;;;32.76;14.47
70200;BME280;57587;55.688;37.600;2022-09-09T06:54:46;100470.09;;;31.50;15.43
70200;BME280;57587;55.688;37.600;2022-09-09T06:57:16;100461.34;;;29.56;16.12
70200;BME280;57587;55.688;37.600;2022-09-09T07:00:07;100472.50;;;30.04;16.86
70200;BME280;57587;55.688;37.600;2022-09-09T07:02:36;100471.06;;;31.92;15.06
70200;BME280;57587;55.688;37.600;2022-09-09T07:05:07;100467.84;;;31.52;14.02
70200;BME280;57587;55.688;37.600;2022-09-09T07:07:35;100467.16;;;31.60;15.03
70200;BME280;57587;55.688;37.600;2022-09-09T07:10:04;100464.22;;;30.57;16.06
70200;BME280;57587;55.688;37.600;2022-09-09T07:12:36;100455.28;;;32.06;14.68
70200;BME280;57587;55.688;37.600;2022-09-09T07:15:04;100469.56;;;32.41;14.55
70200;BME280;57587;55.688;37.600;2022-09-09T07:17:39;100481.94;;;33.80;12.93
70200;BME280;57587;55.688;37.600;2022-09-09T07:20:06;100476.53;;;32.80;13.77
70200;BME280;57587;55.688;37.600;2022-09-09T07:22:37;100475.63;;;30.93;14.34
70200;BME280;57587;55.688;37.600;2022-09-09T07:25:08;100486.19;;;29.51;15.40
70200;BME280;57587;55.688;37.600;2022-09-09T07:27:36;100471.97;;;28.19;17.09
70200;BME280;57587;55.688;37.600;2022-09-09T07:30:04;100475.47;;;28.40;16.86
70200;BME280;57587;55.688;37.600;2022-09-09T07:32:32;100486.44;;;29.88;15.84
70200;BME280;57587;55.688;37.600;2022-09-09T07:35:08;100483.19;;;32.10;14.55
70200;BME280;57587;55.688;37.600;2022-09-09T07:37:38;100492.72;;;30.95;14.10
70200;BME280;57587;55.688;37.600;2022-09-09T07:40:06;100499.31;;;29.69;14.79
70200;BME280;57587;55.688;37.600;2022-09-09T07:42:36;100503.34;;;28.13;16.77
70200;BME280;57587;55.688;37.600;2022-09-09T07:45:04;100491.63;;;26.78;17.46
70200;BME280;57587;55.688;37.600;2022-09-09T07:47:35;100493.47;;;27.66;17.72
70200;BME280;57587;55.688;37.600;2022-09-09T07:50:03;100512.88;;;29.60;15.80
70200;BME280;57587;55.688;37.600;2022-09-09T07:52:31;100514.25;;;29.63;16.01
70200;BME280;57587;55.688;37.600;2022-09-09T07:55:03;100504.75;;;31.23;14.00
70200;BME280;57587;55.688;37.600;2022-09-09T07:57:32;100504.06;;;30.51;14.30
70200;BME280;57587;55.688;37.600;2022-09-09T08:00:00;100510.19;;;29.11;15.08
70200;BME280;57587;55.688;37.600;2022-09-09T08:02:38;100502.25;;;27.57;16.03
70200;BME280;57587;55.688;37.600;2022-09-09T08:05:06;100516.44;;;26.45;17.56
70200;BME280;57587;55.688;37.600;2022-09-09T08:07:34;100517.19;;;25.61;18.52
70200;BME280;57587;55.688;37.600;2022-09-09T08:10:03;100509.72;;;25.02;19.30
70200;BME280;57587;55.688;37.600;2022-09-09T08:12:42;100516.88;;;25.30;18.91
70200;BME280;57587;55.688;37.600;2022-09-09T08:15:31;100511.19;;;24.66;19.97
70200;BME280;57587;55.688;37.600;2022-09-09T08:18:03;100499.28;;;24.16;20.47
70200;BME280;57587;55.688;37.600;2022-09-09T08:20:31;100513.94;;;24.10;20.85
70200;BME280;57587;55.688;37.600;2022-09-09T08:22:58;100493.81;;;25.53;18.54
70200;BME280;57587;55.688;37.600;2022-09-09T08:25:25;100512.59;;;27.09;17.51
70200;BME280;57587;55.688;37.600;2022-09-09T08:27:53;100524.00;;;29.06;16.36
70200;BME280;57587;55.688;37.600;2022-09-09T08:30:20;100498.59;;;30.46;15.46
70200;BME280;57587;55.688;37.600;2022-09-09T08:32:48;100516.66;;;30.04;15.45
70200;BME280;57587;55.688;37.600;2022-09-09T08:35:21;100529.16;;;28.32;16.90
70200;BME280;57587;55.688;37.600;2022-09-09T08:37:54;100515.75;;;26.76;18.35
70200;BME280;57587;55.688;37.600;2022-09-09T08:40:32;100521.91;;;25.71;19.09
70200;BME280;57587;55.688;37.600;2022-09-09T08:43:06;100521.69;;;24.74;20.61
70200;BME280;57587;55.688;37.600;2022-09-09T08:45:38;100519.75;;;24.14;21.09
70200;BME280;57587;55.688;37.600;2022-09-09T08:48:26;100522.25;;;25.20;20.81
70200;BME280;57587;55.688;37.600;2022-09-09T08:50:56;100520.16;;;26.66;18.40
70200;BME280;57587;55.688;37.600;2022-09-09T08:53:42;100504.28;;;28.73;17.14
70200;BME280;57587;55.688;37.600;2022-09-09T08:56:18;100514.66;;;30.09;14.73
70200;BME280;57587;55.688;37.600;2022-09-09T08:58:53;100516.56;;;31.29;14.53
70200;BME280;57587;55.688;37.600;2022-09-09T09:01:43;100532.28;;;31.85;13.87
70200;BME280;57587;55.688;37.600;2022-09-09T09:04:33;100523.69;;;31.54;13.25
70200;BME280;57587;55.688;37.600;2022-09-09T09:12:20;100524.28;;;27.83;16.58
70200;BME280;57587;55.688;37.600;2022-09-09T09:14:49;100537.44;;;27.61;17.01
70200;BME280;57587;55.688;37.600;2022-09-09T09:17:20;100528.31;;;29.17;16.10
70200;BME280;57587;55.688;37.600;2022-09-09T09:19:51;100520.91;;;28.47;16.28
70200;BME280;57587;55.688;37.600;2022-09-09T09:22:39;100521.78;;;26.73;18.35
70200;BME280;57587;55.688;37.600;2022-09-09T09:25:31;100532.47;;;25.30;19.90
70200;BME280;57587;55.688;37.600;2022-09-09T09:30:34;100518.34;;;23.32;22.85
70200;BME280;57587;55.688;37.600;2022-09-09T09:33:34;100524.50;;;22.59;23.01
70200;BME280;57587;55.688;37.600;2022-09-09T09:36:02;100519.03;;;22.00;23.46
70200;BME280;57587;55.688;37.600;2022-09-09T09:38:30;100515.88;;;22.90;22.29
70200;BME280;57587;55.688;37.600;2022-09-09T09:41:29;100511.31;;;23.99;20.93
70200;BME280;57587;55.688;37.600;2022-09-09T09:44:02;100529.19;;;24.62;19.41
70200;BME280;57587;55.688;37.600;2022-09-09T09:46:31;100518.09;;;24.96;19.35
70200;BME280;57587;55.688;37.600;2022-09-09T09:49:09;100509.34;;;24.50;21.24
70200;BME280;57587;55.688;37.600;2022-09-09T09:51:39;100493.25;;;23.98;20.98
70200;BME280;57587;55.688;37.600;2022-09-09T09:56:47;100508.06;;;22.82;22.31
70200;BME280;57587;55.688;37.600;2022-09-09T10:02:17;100502.44;;;21.66;23.96
70200;BME280;57587;55.688;37.600;2022-09-09T10:04:48;100526.19;;;21.29;24.90
70200;BME280;57587;55.688;37.600;2022-09-09T10:07:20;100522.00;;;20.66;24.96
70200;BME280;57587;55.688;37.600;2022-09-09T10:09:54;100532.09;;;20.95;25.61
70200;BME280;57587;55.688;37.600;2022-09-09T10:18:15;100514.28;;;21.95;24.80
70200;BME280;57587;55.688;37.600;2022-09-09T10:35:45;100531.25;;;20.95;25.92
70200;BME280;57587;55.688;37.600;2022-09-09T10:49:08;100526.13;;;19.81;27.25
70200;BME280;57587;55.688;37.600;2022-09-09T10:57:31;100523.63;;;18.65;27.49
70200;BME280;57587;55.688;37.600;2022-09-09T11:00:06;100532.69;;;18.19;29.13
70200;BME280;57587;55.688;37.600;2022-09-09T11:02:36;100536.22;;;17.93;29.19
70200;BME280;57587;55.688;37.600;2022-09-09T11:05:08;100528.31;;;18.05;28.72
70200;BME280;57587;55.688;37.600;2022-09-09T11:16:45;100532.41;;;18.47;28.82
70200;BME280;57587;55.688;37.600;2022-09-09T11:19:37;100530.34;;;18.29;28.86
70200;BME280;57587;55.688;37.600;2022-09-09T11:22:33;100532.69;;;18.06;30.31
70200;BME280;57587;55.688;37.600;2022-09-09T11:42:20;100540.03;;;17.17;30.71
70200;BME280;57587;55.688;37.600;2022-09-09T11:44:47;100537.50;;;17.09;30.25
70200;BME280;57587;55.688;37.600;2022-09-09T11:49:48;100539.19;;;17.03;30.80
70200;BME280;57587;55.688;37.600;2022-09-09T11:52:45;100530.78;;;16.85;28.99
70200;BME280;57587;55.688;37.600;2022-09-09T11:55:26;100529.28;;;16.76;29.78
70200;BME280;57587;55.688;37.600;2022-09-09T11:58:04;100536.13;;;16.78;30.75
70200;BME280;57587;55.688;37.600;2022-09-09T12:00:39;100532.03;;;16.89;30.75
70200;BME280;57587;55.688;37.600;2022-09-09T12:03:39;100533.25;;;16.80;31.43
70200;BME280;57587;55.688;37.600;2022-09-09T12:08:45;100530.06;;;16.70;31.33
70200;BME280;57587;55.688;37.600;2022-09-09T12:11:24;100534.34;;;16.57;32.36
70200;BME280;57587;55.688;37.600;2022-09-09T12:13:56;100523.81;;;16.34;32.25
70200;BME280;57587;55.688;37.600;2022-09-09T12:16:41;100530.75;;;16.16;33.66
70200;BME280;57587;55.688;37.600;2022-09-09T12:19:20;100522.28;;;15.90;33.92
70200;BME280;57587;55.688;37.600;2022-09-09T12:27:32;100525.19;;;15.46;32.78
70200;BME280;57587;55.688;37.600;2022-09-09T12:30:07;100528.97;;;15.52;32.91
70200;BME280;57587;55.688;37.600;2022-09-09T12:32:35;100529.91;;;15.44;33.14
70200;BME280;57587;55.688;37.600;2022-09-09T12:35:08;100528.00;;;15.38;33.49
70200;BME280;57587;55.688;37.600;2022-09-09T12:37:46;100528.25;;;15.43;33.68
70200;BME280;57587;55.688;37.600;2022-09-09T12:40:25;100520.41;;;15.48;32.65
70200;BME280;57587;55.688;37.600;2022-09-09T12:42:54;100521.94;;;15.57;33.39
70200;BME280;57587;55.688;37.600;2022-09-09T12:45:28;100521.56;;;15.60;34.17
70200;BME280;57587;55.688;37.600;2022-09-09T12:48:08;100526.72;;;15.55;34.22
70200;BME280;57587;55.688;37.600;2022-09-09T12:50:44;100526.34;;;15.58;34.02
70200;BME280;57587;55.688;37.600;2022-09-09T12:56:37;100525.34;;;15.44;33.06
70200;BME280;57587;55.688;37.600;2022-09-09T12:58:38;100525.13;;;15.39;32.78
70200;BME280;57587;55.688;37.600;2022-09-09T13:01:23;100519.56;;;15.26;33.84
70200;BME280;57587;55.688;37.600;2022-09-09T13:03:54;100522.72;;;15.08;34.39
70200;BME280;57587;55.688;37.600;2022-09-09T13:06:27;100524.69;;;14.99;34.64
70200;BME280;57587;55.688;37.600;2022-09-09T13:08:57;100525.88;;;14.97;35.35
70200;BME280;57587;55.688;37.600;2022-09-09T13:11:50;100521.63;;;14.88;35.47
70200;BME280;57587;55.688;37.600;2022-09-09T13:14:28;100514.97;;;14.84;35.69
70200;BME280;57587;55.688;37.600;2022-09-09T13:16:59;100522.28;;;14.90;35.96
70200;BME280;57587;55.688;37.600;2022-09-09T13:19:29;100522.75;;;14.93;36.40
70200;BME280;57587;55.688;37.600;2022-09-09T13:21:58;100526.91;;;14.96;35.47
70200;BME280;57587;55.688;37.600;2022-09-09T13:24:32;100528.56;;;14.97;35.17
70200;BME280;57587;55.688;37.600;2022-09-09T13:27:02;100519.22;;;14.93;35.81
70200;BME280;57587;55.688;37.600;2022-09-09T13:29:31;100522.91;;;14.92;36.12
70200;BME280;57587;55.688;37.600;2022-09-09T13:32:17;100524.13;;;14.89;35.14
70200;BME280;57587;55.688;37.600;2022-09-09T13:34:55;100521.25;;;14.91;35.25
70200;BME280;57587;55.688;37.600;2022-09-09T13:39:56;100525.44;;;14.93;35.42
70200;BME280;57587;55.688;37.600;2022-09-09T13:42:27;100511.88;;;14.87;36.21
70200;BME280;57587;55.688;37.600;2022-09-09T13:44:56;100522.91;;;14.92;35.71
70200;BME280;57587;55.688;37.600;2022-09-09T13:47:31;100519.22;;;14.93;36.20
70200;BME280;57587;55.688;37.600;2022-09-09T13:50:22;100523.75;;;14.92;36.13
70200;BME280;57587;55.688;37.600;2022-09-09T13:52:52;100521.78;;;15.01;36.49
70200;BME280;57587;55.688;37.600;2022-09-09T13:55:22;100518.06;;;15.02;36.12
70200;BME280;57587;55.688;37.600;2022-09-09T14:00:23;100508.00;;;15.11;35.44
70200;BME280;57587;55.688;37.600;2022-09-09T14:02:51;100517.38;;;15.15;35.67
70200;BME280;57587;55.688;37.600;2022-09-09T14:05:18;100514.88;;;15.13;35.03
70200;BME280;57587;55.688;37.600;2022-09-09T14:07:46;100511.56;;;15.11;36.02
70200;BME280;57587;55.688;37.600;2022-09-09T14:10:19;100513.59;;;15.09;35.42
70200;BME280;57587;55.688;37.600;2022-09-09T14:12:46;100511.00;;;15.01;35.80
70200;BME280;57587;55.688;37.600;2022-09-09T14:15:13;100508.22;;;14.94;35.17
70200;BME280;57587;55.688;37.600;2022-09-09T14:17:44;100515.88;;;14.91;35.87
70200;BME280;57587;55.688;37.600;2022-09-09T14:20:11;100510.78;;;14.81;36.15
70200;BME280;57587;55.688;37.600;2022-09-09T14:22:38;100515.88;;;14.76;36.71
70200;BME280;57587;55.688;37.600;2022-09-09T14:25:11;100515.72;;;14.78;36.76
70200;BME280;57587;55.688;37.600;2022-09-09T14:27:40;100518.56;;;14.76;36.29
70200;BME280;57587;55.688;37.600;2022-09-09T14:30:09;100516.34;;;14.80;36.28
70200;BME280;57587;55.688;37.600;2022-09-09T14:32:36;100504.94;;;14.78;37.29
70200;BME280;57587;55.688;37.600;2022-09-09T14:35:06;100505.75;;;14.78;36.67
70200;BME280;57587;55.688;37.600;2022-09-09T14:37:34;100515.72;;;14.78;36.92
70200;BME280;57587;55.688;37.600;2022-09-09T14:40:01;100508.75;;;14.68;37.13
70200;BME280;57587;55.688;37.600;2022-09-09T14:42:28;100513.78;;;14.57;37.37
70200;BME280;57587;55.688;37.600;2022-09-09T14:44:56;100519.69;;;14.52;36.94
70200;BME280;57587;55.688;37.600;2022-09-09T14:47:23;100507.69;;;14.40;37.18
70200;BME280;57587;55.688;37.600;2022-09-09T14:49:51;100523.97;;;14.32;37.32
70200;BME280;57587;55.688;37.600;2022-09-09T14:52:18;100526.63;;;14.17;36.66
70200;BME280;57587;55.688;37.600;2022-09-09T14:54:45;100508.34;;;13.97;38.18
70200;BME280;57587;55.688;37.600;2022-09-09T14:57:13;100515.19;;;13.85;37.69
70200;BME280;57587;55.688;37.600;2022-09-09T14:59:40;100512.91;;;13.74;36.99
70200;BME280;57587;55.688;37.600;2022-09-09T15:02:08;100500.91;;;13.61;37.39
70200;BME280;57587;55.688;37.600;2022-09-09T15:04:36;100510.38;;;13.57;37.98
70200;BME280;57587;55.688;37.600;2022-09-09T15:07:03;100506.75;;;13.50;38.32
70200;BME280;57587;55.688;37.600;2022-09-09T15:09:30;100516.34;;;13.45;38.51
70200;BME280;57587;55.688;37.600;2022-09-09T15:11:57;100514.38;;;13.38;37.84
70200;BME280;57587;55.688;37.600;2022-09-09T15:14:24;100522.44;;;13.38;38.53
70200;BME280;57587;55.688;37.600;2022-09-09T15:16:56;100514.53;;;13.37;39.17
70200;BME280;57587;55.688;37.600;2022-09-09T15:19:23;100504.03;;;13.27;39.41
70200;BME280;57587;55.688;37.600;2022-09-09T15:21:50;100506.72;;;13.27;39.50
70200;BME280;57587;55.688;37.600;2022-09-09T15:24:21;100511.75;;;13.22;40.08
70200;BME280;57587;55.688;37.600;2022-09-09T15:26:48;100516.50;;;13.20;41.07
70200;BME280;57587;55.688;37.600;2022-09-09T15:29:15;100518.19;;;13.13;40.15
70200;BME280;57587;55.688;37.600;2022-09-09T15:31:42;100518.53;;;13.10;40.71
70200;BME280;57587;55.688;37.600;2022-09-09T15:34:09;100530.19;;;13.02;41.42
70200;BME280;57587;55.688;37.600;2022-09-09T15:36:41;100527.72;;;12.92;41.07
70200;BME280;57587;55.688;37.600;2022-09-09T15:39:11;100528.44;;;12.86;41.99
70200;BME280;57587;55.688;37.600;2022-09-09T15:41:44;100531.97;;;12.79;42.13